createdAt,value
2017-10-07T00:01:38.845Z,2.83
2017-10-07T00:04:05.122Z,1.50
2017-10-07T00:06:31.719Z,2.10
2017-10-07T00:08:58.387Z,1.33
2017-10-07T00:11:24.979Z,1.13
2017-10-07T00:13:52.263Z,1.27
2017-10-07T00:16:18.475Z,2.60
2017-10-07T00:18:44.674Z,1.60
2017-10-07T00:21:10.898Z,1.40
2017-10-07T00:23:37.627Z,1.20
2017-10-07T00:26:03.836Z,1.80
2017-10-07T00:28:30.399Z,2.40
2017-10-07T00:30:57.130Z,2.03
2017-10-07T00:33:23.340Z,1.40
2017-10-07T00:35:49.559Z,1.60
2017-10-07T00:38:17.182Z,1.00
2017-10-07T00:40:44.130Z,1.73
2017-10-07T00:43:10.881Z,1.40
2017-10-07T00:45:37.105Z,1.33
2017-10-07T00:48:03.850Z,2.10
2017-10-07T00:50:30.077Z,1.50
2017-10-07T00:52:56.314Z,1.37
2017-10-07T00:55:23.020Z,1.20
2017-10-07T00:57:50.021Z,1.37
2017-10-07T01:00:16.926Z,1.17
2017-10-07T01:02:43.509Z,1.30
2017-10-07T01:05:09.759Z,6.03
2017-10-07T01:07:36.370Z,2.33
2017-10-07T01:10:02.603Z,1.40
2017-10-07T01:12:28.810Z,1.20
2017-10-07T01:14:55.792Z,1.00
2017-10-07T01:17:22.014Z,0.90
2017-10-07T01:19:48.340Z,1.00
2017-10-07T01:22:14.770Z,1.00
2017-10-07T01:24:42.372Z,0.97
2017-10-07T01:27:08.613Z,0.93
2017-10-07T01:29:35.269Z,0.90
2017-10-07T01:32:02.203Z,0.80
2017-10-07T01:34:29.060Z,1.07
2017-10-07T01:36:55.298Z,0.80
2017-10-07T01:39:22.037Z,0.93
2017-10-07T01:41:48.621Z,0.77
2017-10-07T01:44:15.628Z,0.90
2017-10-07T01:46:42.303Z,1.27
2017-10-07T01:49:08.522Z,1.00
2017-10-07T01:51:34.765Z,1.17
2017-10-07T01:54:01.389Z,1.00
2017-10-07T01:56:28.342Z,1.20
2017-10-07T01:58:54.540Z,1.30
2017-10-07T02:01:21.431Z,1.00
2017-10-07T02:03:47.646Z,1.00
2017-10-07T02:06:13.856Z,1.37
2017-10-07T02:08:40.085Z,1.23
2017-10-07T02:11:06.298Z,1.30
2017-10-07T02:13:33.366Z,1.13
2017-10-07T02:15:59.593Z,0.80
2017-10-07T02:18:26.538Z,1.20
2017-10-07T02:20:53.462Z,0.87
2017-10-07T02:23:20.381Z,1.23
2017-10-07T02:25:46.600Z,1.67
2017-10-07T02:28:13.133Z,1.60
2017-10-07T02:30:39.821Z,1.30
2017-10-07T02:33:06.451Z,1.43
2017-10-07T02:35:34.221Z,1.10
2017-10-07T02:38:00.970Z,1.10
2017-10-07T02:40:27.596Z,1.20
2017-10-07T02:42:53.798Z,1.47
2017-10-07T02:45:20.589Z,1.40
2017-10-07T02:47:47.337Z,1.10
2017-10-07T02:50:13.843Z,1.33
2017-10-07T02:52:40.042Z,1.50
2017-10-07T02:55:07.058Z,1.90
2017-10-07T02:57:33.255Z,1.50
2017-10-07T03:00:00.037Z,1.50
2017-10-07T03:02:26.229Z,1.70
2017-10-07T03:04:52.447Z,1.00
2017-10-07T03:07:19.410Z,1.30
2017-10-07T03:09:46.340Z,1.77
2017-10-07T03:12:12.676Z,1.60
2017-10-07T03:14:38.922Z,1.20
2017-10-07T03:17:05.869Z,1.63
2017-10-07T03:19:32.821Z,1.43
2017-10-07T03:22:00.242Z,1.37
2017-10-07T03:24:26.991Z,1.40
2017-10-07T03:26:53.196Z,1.30
2017-10-07T03:29:19.866Z,1.50
2017-10-07T03:31:46.575Z,1.50
2017-10-07T03:34:13.347Z,1.40
2017-10-07T03:36:39.554Z,1.17
2017-10-07T03:39:06.531Z,1.33
2017-10-07T03:41:33.304Z,1.40
2017-10-07T03:43:59.890Z,1.93
2017-10-07T03:46:26.138Z,1.43
2017-10-07T03:48:53.012Z,0.80
2017-10-07T03:51:19.210Z,1.20
2017-10-07T03:53:45.933Z,1.17
2017-10-07T03:56:13.322Z,1.10
2017-10-07T03:58:39.527Z,1.23
2017-10-07T04:01:06.485Z,1.30
2017-10-07T04:03:33.447Z,1.13
2017-10-07T04:05:59.644Z,1.50
2017-10-07T04:08:25.939Z,1.10
2017-10-07T04:10:52.581Z,0.97
2017-10-07T04:13:18.782Z,1.00
2017-10-07T04:16:00.654Z,1.10
2017-10-07T04:18:26.954Z,0.87
2017-10-07T04:20:53.305Z,1.10
2017-10-07T04:23:20.001Z,2.00
2017-10-07T04:25:46.215Z,1.47
2017-10-07T04:28:13.722Z,1.50
2017-10-07T04:30:40.442Z,1.40
2017-10-07T04:33:07.075Z,1.67
2017-10-07T04:35:33.274Z,1.30
2017-10-07T04:37:59.474Z,1.07
2017-10-07T04:40:26.237Z,1.90
2017-10-07T04:42:52.431Z,2.10
2017-10-07T04:45:19.218Z,1.23
2017-10-07T04:47:45.426Z,5.83
2017-10-07T04:50:11.669Z,1.63
2017-10-07T04:52:37.932Z,1.10
2017-10-07T04:55:04.669Z,1.17
2017-10-07T04:57:31.241Z,1.00
2017-10-07T04:59:58.242Z,1.00
2017-10-07T05:02:25.100Z,0.90
2017-10-07T05:04:51.344Z,1.00
2017-10-07T05:07:17.562Z,0.80
2017-10-07T05:09:43.819Z,0.90
2017-10-07T05:12:10.548Z,0.97
2017-10-07T05:14:36.804Z,0.90
2017-10-07T05:17:03.061Z,0.80
2017-10-07T05:19:30.031Z,0.90
2017-10-07T05:21:56.253Z,1.10
2017-10-07T05:24:23.765Z,1.20
2017-10-07T05:26:50.001Z,0.90
2017-10-07T05:29:16.566Z,1.10
2017-10-07T05:31:43.285Z,0.90
2017-10-07T05:34:10.138Z,1.00
2017-10-07T05:36:36.365Z,1.20
2017-10-07T05:39:02.646Z,1.40
2017-10-07T05:41:30.270Z,1.10
2017-10-07T05:43:56.489Z,1.50
2017-10-07T05:46:22.714Z,1.33
2017-10-07T05:48:48.945Z,0.93
2017-10-07T05:51:15.613Z,1.10
2017-10-07T05:53:43.084Z,1.20
2017-10-07T05:56:09.285Z,1.00
2017-10-07T05:58:36.333Z,0.90
2017-10-07T06:01:02.557Z,0.80
2017-10-07T06:03:28.807Z,0.90
2017-10-07T06:05:55.044Z,0.90
2017-10-07T06:08:21.292Z,0.80
2017-10-07T06:10:47.706Z,0.90
2017-10-07T06:13:14.453Z,1.10
2017-10-07T06:15:40.690Z,1.00
2017-10-07T06:18:06.914Z,0.90
2017-10-07T06:20:33.197Z,0.80
2017-10-07T06:22:59.860Z,0.97
2017-10-07T06:25:26.637Z,1.00
2017-10-07T06:27:53.426Z,1.10
2017-10-07T06:30:20.581Z,0.93
2017-10-07T06:32:47.340Z,1.10
2017-10-07T06:35:14.292Z,1.20
2017-10-07T06:37:41.124Z,1.00
2017-10-07T06:40:07.802Z,0.97
2017-10-07T06:42:34.014Z,1.10
2017-10-07T06:45:00.749Z,1.40
2017-10-07T06:47:26.962Z,1.50
2017-10-07T06:49:53.643Z,1.70
2017-10-07T06:52:19.901Z,1.90
2017-10-07T06:54:47.421Z,1.90
2017-10-07T06:57:14.076Z,1.60
2017-10-07T06:59:40.627Z,1.63
2017-10-07T07:02:07.327Z,1.47
2017-10-07T07:04:33.597Z,1.40
2017-10-07T07:07:00.414Z,1.33
2017-10-07T07:09:26.621Z,1.80
2017-10-07T07:11:53.610Z,1.60
2017-10-07T07:14:19.853Z,2.20
2017-10-07T07:16:46.053Z,1.60
2017-10-07T07:19:12.348Z,2.03
2017-10-07T07:21:38.622Z,1.63
2017-10-07T07:24:05.301Z,2.03
2017-10-07T07:26:31.930Z,1.80
2017-10-07T07:28:58.791Z,1.70
2017-10-07T07:31:24.981Z,1.10
2017-10-07T07:33:51.524Z,1.40
2017-10-07T07:36:18.103Z,1.67
2017-10-07T07:38:44.306Z,2.37
2017-10-07T07:41:10.965Z,2.30
2017-10-07T07:43:37.169Z,1.50
2017-10-07T07:46:04.690Z,1.40
2017-10-07T07:48:30.909Z,2.30
2017-10-07T07:50:57.525Z,2.23
2017-10-07T07:53:24.315Z,2.03
2017-10-07T07:55:51.051Z,2.17
2017-10-07T07:58:17.294Z,1.73
2017-10-07T08:00:43.532Z,1.80
2017-10-07T08:03:10.402Z,1.60
2017-10-07T08:05:36.626Z,1.57
2017-10-07T08:08:02.927Z,1.50
2017-10-07T08:10:29.479Z,2.07
2017-10-07T08:12:55.722Z,2.50
2017-10-07T08:15:21.940Z,1.87
2017-10-07T08:17:48.162Z,2.03
2017-10-07T08:20:14.397Z,1.97
2017-10-07T08:22:41.463Z,1.73
2017-10-07T08:25:07.673Z,2.30
2017-10-07T08:27:34.237Z,1.57
2017-10-07T08:30:00.426Z,2.03
2017-10-07T08:32:27.853Z,2.00
2017-10-07T08:34:54.609Z,1.57
2017-10-07T08:37:21.221Z,1.40
2017-10-07T08:39:48.076Z,1.53
2017-10-07T08:42:14.950Z,14.37
2017-10-07T08:44:41.874Z,14.70
2017-10-07T08:47:08.094Z,12.60
2017-10-07T08:49:34.340Z,4.33
2017-10-07T08:52:00.978Z,2.80
2017-10-07T08:54:27.837Z,7.03
2017-10-07T08:56:54.498Z,2.40
2017-10-07T08:59:21.323Z,3.20
2017-10-07T09:01:47.543Z,2.73
2017-10-07T09:04:13.748Z,2.57
2017-10-07T09:06:40.015Z,2.60
2017-10-07T09:09:06.218Z,2.10
2017-10-07T09:11:32.634Z,1.80
2017-10-07T09:13:59.647Z,1.70
2017-10-07T09:16:27.213Z,7.03
2017-10-07T09:18:54.076Z,2.80
2017-10-07T09:21:20.677Z,2.17
2017-10-07T09:23:47.652Z,12.33
2017-10-07T09:26:13.846Z,3.03
2017-10-07T09:28:40.738Z,2.67
2017-10-07T09:31:07.582Z,2.10
2017-10-07T09:33:34.442Z,17.00
2017-10-07T09:36:00.658Z,10.83
2017-10-07T09:38:26.864Z,9.93
2017-10-07T09:40:53.542Z,5.80
2017-10-07T09:43:20.498Z,16.00
2017-10-07T09:45:46.690Z,4.20
2017-10-07T09:48:13.313Z,2.87
2017-10-07T09:50:40.314Z,2.00
2017-10-07T09:53:06.524Z,1.70
2017-10-07T09:55:32.791Z,1.90
2017-10-07T09:57:59.810Z,2.30
2017-10-07T10:00:26.071Z,2.53
2017-10-07T10:02:52.413Z,2.00
2017-10-07T10:05:18.685Z,2.10
2017-10-07T10:07:46.327Z,4.53
2017-10-07T10:10:12.721Z,1.80
2017-10-07T10:12:38.914Z,1.50
2017-10-07T10:15:05.563Z,2.43
2017-10-07T10:17:32.412Z,1.70
2017-10-07T10:19:59.499Z,1.50
2017-10-07T10:22:26.263Z,2.00
2017-10-07T10:24:52.586Z,1.80
2017-10-07T10:27:19.237Z,1.70
2017-10-07T10:29:46.226Z,2.00
2017-10-07T10:32:12.961Z,2.60
2017-10-07T10:34:39.643Z,1.90
2017-10-07T10:37:06.747Z,2.17
2017-10-07T10:39:33.697Z,2.30
2017-10-07T10:42:00.298Z,2.00
2017-10-07T10:44:27.634Z,2.47
2017-10-07T10:46:54.587Z,2.40
2017-10-07T10:49:21.556Z,2.00
2017-10-07T10:51:48.506Z,1.90
2017-10-07T10:54:15.473Z,2.90
2017-10-07T10:56:41.703Z,6.07
2017-10-07T10:59:08.484Z,15.40
2017-10-07T11:01:35.229Z,6.20
2017-10-07T11:04:01.867Z,6.57
2017-10-07T11:06:28.077Z,2.10
2017-10-07T11:08:54.286Z,2.47
2017-10-07T11:11:21.285Z,2.00
2017-10-07T11:13:48.157Z,2.33
2017-10-07T11:16:14.962Z,1.87
2017-10-07T11:18:41.645Z,1.30
2017-10-07T11:21:08.258Z,1.03
2017-10-07T11:23:35.948Z,1.10
2017-10-07T11:26:02.148Z,1.33
2017-10-07T11:28:28.364Z,1.20
2017-10-07T11:30:55.622Z,1.40
2017-10-07T11:33:22.386Z,1.90
2017-10-07T11:35:48.613Z,2.00
2017-10-07T11:38:15.146Z,1.57
2017-10-07T11:40:41.829Z,1.30
2017-10-07T11:43:08.050Z,1.60
2017-10-07T11:45:34.273Z,4.07
2017-10-07T11:48:01.178Z,1.37
2017-10-07T11:50:27.868Z,1.40
2017-10-07T11:52:54.645Z,1.27
2017-10-07T11:55:20.887Z,1.20
2017-10-07T11:57:47.090Z,1.53
2017-10-07T12:00:13.314Z,1.30
2017-10-07T12:02:39.508Z,1.53
2017-10-07T12:05:06.549Z,1.13
2017-10-07T12:07:33.194Z,1.10
2017-10-07T12:09:59.917Z,1.10
2017-10-07T12:12:26.869Z,1.10
2017-10-07T12:14:53.140Z,1.00
2017-10-07T12:17:20.700Z,0.90
2017-10-07T12:19:48.069Z,1.20
2017-10-07T12:22:15.057Z,0.90
2017-10-07T12:24:41.828Z,1.13
2017-10-07T12:27:08.054Z,1.00
2017-10-07T12:29:34.806Z,1.13
2017-10-07T12:32:01.261Z,1.20
2017-10-07T12:34:27.890Z,1.10
2017-10-07T12:36:54.625Z,1.00
2017-10-07T12:39:20.865Z,0.80
2017-10-07T12:41:47.812Z,1.00
2017-10-07T12:44:14.571Z,0.90
2017-10-07T12:46:40.787Z,1.00
2017-10-07T12:49:07.015Z,0.90
2017-10-07T12:51:33.241Z,1.00
2017-10-07T12:53:59.446Z,1.00
2017-10-07T12:56:26.461Z,1.10
2017-10-07T12:58:53.188Z,1.03
2017-10-07T13:01:19.397Z,1.10
2017-10-07T13:03:45.614Z,0.93
2017-10-07T13:06:11.991Z,1.30
2017-10-07T13:08:38.738Z,1.10
2017-10-07T13:11:05.347Z,1.00
2017-10-07T13:13:31.574Z,0.80
2017-10-07T13:15:59.210Z,0.90
2017-10-07T13:18:26.751Z,1.10
2017-10-07T13:20:52.959Z,0.90
2017-10-07T13:23:19.932Z,1.60
2017-10-07T13:25:46.545Z,1.00
2017-10-07T13:28:12.768Z,0.80
2017-10-07T13:30:39.285Z,0.80
2017-10-07T13:33:06.701Z,0.70
2017-10-07T13:35:32.906Z,0.90
2017-10-07T13:37:59.458Z,0.90
2017-10-07T13:40:26.229Z,0.80
2017-10-07T13:42:52.514Z,0.90
2017-10-07T13:45:19.739Z,0.80
2017-10-07T13:47:46.507Z,0.70
2017-10-07T13:50:12.795Z,1.00
2017-10-07T13:52:39.061Z,0.90
2017-10-07T13:55:05.508Z,0.97
2017-10-07T13:57:32.531Z,1.00
2017-10-07T13:59:58.897Z,1.00
2017-10-07T14:02:25.122Z,0.80
2017-10-07T14:04:51.946Z,0.80
2017-10-07T14:07:18.181Z,0.90
2017-10-07T14:09:45.063Z,0.90
2017-10-07T14:12:11.804Z,1.00
2017-10-07T14:14:38.023Z,0.87
2017-10-07T14:17:04.964Z,0.90
2017-10-07T14:19:31.167Z,0.90
2017-10-07T14:21:57.386Z,1.03
2017-10-07T14:24:24.062Z,0.80
2017-10-07T14:26:50.270Z,0.80
2017-10-07T14:29:17.491Z,1.00
2017-10-07T14:31:44.205Z,0.80
2017-10-07T14:34:10.699Z,1.00
2017-10-07T14:36:37.642Z,1.10
2017-10-07T14:39:04.594Z,1.00
2017-10-07T14:41:32.101Z,1.10
2017-10-07T14:43:58.806Z,1.00
2017-10-07T14:46:26.324Z,1.00
2017-10-07T14:48:52.932Z,1.40
2017-10-07T14:51:21.817Z,2.43
2017-10-07T14:53:48.194Z,2.70
2017-10-07T14:56:14.409Z,2.07
2017-10-07T14:58:41.047Z,2.10
2017-10-07T15:01:07.274Z,4.37
2017-10-07T15:03:33.476Z,4.00
2017-10-07T15:06:00.988Z,3.00
2017-10-07T15:08:27.850Z,2.13
2017-10-07T15:10:54.596Z,1.90
2017-10-07T15:13:21.262Z,1.23
2017-10-07T15:15:47.466Z,1.20
2017-10-07T15:18:14.364Z,2.27
2017-10-07T15:20:41.927Z,1.80
2017-10-07T15:23:10.373Z,2.07
2017-10-07T15:25:36.604Z,1.70
2017-10-07T15:28:03.242Z,1.40
2017-10-07T15:30:29.866Z,0.90
2017-10-07T15:32:56.834Z,0.87
2017-10-07T15:35:23.485Z,0.90
2017-10-07T15:37:49.665Z,1.00
2017-10-07T15:40:17.101Z,1.03
2017-10-07T15:42:43.313Z,0.90
2017-10-07T15:45:09.600Z,1.20
2017-10-07T15:47:36.788Z,1.60
2017-10-07T15:50:03.021Z,1.70
2017-10-07T15:52:29.653Z,1.43
2017-10-07T15:54:55.867Z,1.50
2017-10-07T15:57:22.820Z,1.10
2017-10-07T15:59:49.049Z,1.77
2017-10-07T16:02:16.447Z,3.33
2017-10-07T16:04:43.005Z,2.53
2017-10-07T16:07:10.545Z,1.90
2017-10-07T16:09:36.849Z,1.27
2017-10-07T16:12:03.840Z,1.37
2017-10-07T16:14:30.501Z,1.10
2017-10-07T16:16:56.797Z,1.00
2017-10-07T16:19:23.020Z,1.37
2017-10-07T16:21:49.706Z,1.70
2017-10-07T16:24:17.129Z,2.23
2017-10-07T16:26:43.925Z,1.77
2017-10-07T16:29:10.246Z,2.50
2017-10-07T16:31:36.477Z,2.50
2017-10-07T16:34:03.586Z,3.47
2017-10-07T16:36:31.069Z,7.83
2017-10-07T16:38:57.322Z,8.63
2017-10-07T16:41:24.254Z,6.33
2017-10-07T16:43:51.146Z,3.50
2017-10-07T16:46:17.814Z,3.67
2017-10-07T16:48:44.138Z,2.90
2017-10-07T16:51:10.541Z,2.70
2017-10-07T16:53:37.411Z,4.10
2017-10-07T16:56:04.130Z,3.50
2017-10-07T16:58:31.006Z,2.70
2017-10-07T17:00:57.749Z,3.33
2017-10-07T17:03:24.487Z,6.20
2017-10-07T17:05:50.957Z,2.90
2017-10-07T17:08:17.868Z,1.40
2017-10-07T17:10:44.669Z,2.83
2017-10-07T17:13:11.632Z,3.80
2017-10-07T17:15:37.869Z,2.80
2017-10-07T17:18:04.125Z,2.17
2017-10-07T17:20:30.690Z,1.30
2017-10-07T17:22:57.637Z,1.17
2017-10-07T17:25:24.106Z,1.10
2017-10-07T17:27:50.535Z,1.10
2017-10-07T17:30:16.962Z,1.03
2017-10-07T17:32:43.535Z,1.20
2017-10-07T17:35:10.221Z,1.10
2017-10-07T17:37:36.442Z,1.80
2017-10-07T17:40:03.117Z,3.50
2017-10-07T17:42:29.322Z,13.00
2017-10-07T17:44:56.300Z,8.63
2017-10-07T17:47:22.908Z,4.07
2017-10-07T17:49:49.109Z,2.97
2017-10-07T17:52:15.826Z,3.40
2017-10-07T17:54:42.021Z,4.33
2017-10-07T17:57:08.237Z,3.20
2017-10-07T17:59:35.747Z,4.03
2017-10-07T18:02:02.603Z,4.00
2017-10-07T18:04:28.813Z,3.43
2017-10-07T18:06:55.076Z,3.30
2017-10-07T18:09:21.922Z,2.90
2017-10-07T18:11:48.274Z,3.00
2017-10-07T18:14:15.433Z,3.10
2017-10-07T18:16:41.673Z,4.27
2017-10-07T18:19:08.133Z,3.40
2017-10-07T18:21:35.597Z,1.70
2017-10-07T18:24:03.474Z,2.20
2017-10-07T18:26:30.505Z,2.20
2017-10-07T18:28:57.746Z,1.77
2017-10-07T18:31:25.128Z,2.80
2017-10-07T18:33:52.298Z,2.50
2017-10-07T18:36:19.427Z,2.93
2017-10-07T18:38:46.162Z,2.90
2017-10-07T18:41:12.877Z,1.90
2017-10-07T18:43:39.273Z,2.60
2017-10-07T18:46:06.585Z,2.43
2017-10-07T18:48:32.818Z,2.20
2017-10-07T18:50:59.415Z,2.93
2017-10-07T18:53:26.310Z,3.00
2017-10-07T18:55:52.845Z,2.47
2017-10-07T18:58:19.106Z,2.63
2017-10-07T19:00:45.725Z,2.43
2017-10-07T19:03:11.959Z,2.70
2017-10-07T19:05:38.209Z,1.90
2017-10-07T19:08:04.980Z,2.10
2017-10-07T19:10:32.310Z,2.00
2017-10-07T19:12:58.501Z,2.20
2017-10-07T19:15:24.730Z,1.80
2017-10-07T19:17:51.394Z,2.20
2017-10-07T19:20:17.621Z,2.00
2017-10-07T19:22:44.290Z,2.60
2017-10-07T19:25:10.492Z,2.80
2017-10-07T19:27:37.390Z,2.43
2017-10-07T19:30:04.333Z,2.00
2017-10-07T19:32:30.554Z,1.40
2017-10-07T19:34:57.452Z,1.60
2017-10-07T19:37:24.522Z,1.10
2017-10-07T19:39:51.611Z,1.20
2017-10-07T19:42:18.011Z,1.23
2017-10-07T19:44:44.754Z,1.63
2017-10-07T19:47:11.661Z,1.80
2017-10-07T19:49:37.867Z,1.33
2017-10-07T19:52:04.668Z,1.27
2017-10-07T19:54:32.154Z,1.20
2017-10-07T19:56:59.309Z,1.17
2017-10-07T19:59:25.547Z,1.20
2017-10-07T20:01:52.138Z,1.30
2017-10-07T20:04:19.878Z,1.10
2017-10-07T20:06:47.203Z,1.00
2017-10-07T20:09:14.106Z,1.20
2017-10-07T20:11:40.314Z,1.20
2017-10-07T20:14:06.522Z,1.10
2017-10-07T20:16:33.140Z,1.00
2017-10-07T20:19:00.124Z,1.10
2017-10-07T20:21:27.606Z,1.10
2017-10-07T20:23:56.165Z,1.57
2017-10-07T20:26:23.285Z,1.20
2017-10-07T20:28:49.497Z,1.00
2017-10-07T20:31:16.276Z,1.00
2017-10-07T20:33:42.554Z,1.03
2017-10-07T20:36:09.125Z,1.00
2017-10-07T20:38:35.354Z,1.40
2017-10-07T20:41:02.411Z,1.00
2017-10-07T20:43:29.013Z,1.00
2017-10-07T20:45:55.485Z,1.20
2017-10-07T20:48:21.685Z,1.30
2017-10-07T20:50:48.773Z,1.20
2017-10-07T20:53:16.300Z,1.40
2017-10-07T20:55:42.579Z,1.40
2017-10-07T20:58:09.525Z,1.20
2017-10-07T21:00:36.373Z,1.00
2017-10-07T21:03:02.597Z,1.20
2017-10-07T21:05:28.795Z,1.30
2017-10-07T21:07:55.010Z,1.20
2017-10-07T21:10:22.314Z,1.10
2017-10-07T21:12:49.450Z,1.10
2017-10-07T21:15:15.735Z,1.10
2017-10-07T21:17:42.669Z,0.90
2017-10-07T21:20:08.880Z,1.00
2017-10-07T21:22:35.947Z,1.10
2017-10-07T21:25:02.480Z,1.17
2017-10-07T21:27:28.690Z,1.30
2017-10-07T21:29:55.476Z,1.00
2017-10-07T21:32:22.333Z,1.13
2017-10-07T21:34:48.839Z,1.00
2017-10-07T21:37:15.841Z,1.03
2017-10-07T21:39:42.088Z,0.93
2017-10-07T21:42:09.747Z,1.10
2017-10-07T21:44:36.445Z,1.00
2017-10-07T21:47:03.207Z,0.93
2017-10-07T21:49:29.815Z,1.37
2017-10-07T21:51:56.804Z,1.10
2017-10-07T21:54:23.051Z,0.90
2017-10-07T21:56:49.458Z,1.00
2017-10-07T21:59:15.683Z,1.10
2017-10-07T22:01:42.794Z,0.90
2017-10-07T22:04:10.233Z,1.30
2017-10-07T22:06:37.196Z,1.03
2017-10-07T22:09:04.021Z,1.20
2017-10-07T22:11:30.970Z,0.80
2017-10-07T22:13:57.299Z,1.07
2017-10-07T22:16:23.533Z,0.97
2017-10-07T22:18:49.796Z,1.13
2017-10-07T22:21:16.023Z,1.07
2017-10-07T22:23:42.659Z,0.83
2017-10-07T22:26:09.605Z,1.00
2017-10-07T22:28:36.495Z,1.00
2017-10-07T22:31:03.461Z,1.00
2017-10-07T22:33:30.221Z,1.20
2017-10-07T22:35:56.898Z,1.20
2017-10-07T22:38:23.109Z,1.10
2017-10-07T22:40:49.923Z,1.30
2017-10-07T22:43:17.266Z,1.07
2017-10-07T22:45:44.180Z,1.20
2017-10-07T22:48:10.925Z,1.17
2017-10-07T22:50:37.180Z,1.00
2017-10-07T22:53:03.914Z,1.30
2017-10-07T22:55:30.125Z,1.10
2017-10-07T22:57:56.327Z,1.10
2017-10-07T23:00:23.375Z,1.00
2017-10-07T23:02:50.658Z,1.20
2017-10-07T23:05:17.541Z,1.00
2017-10-07T23:07:44.508Z,1.00
2017-10-07T23:10:10.746Z,0.90
2017-10-07T23:12:37.714Z,1.10
2017-10-07T23:15:04.747Z,1.03
2017-10-07T23:17:31.026Z,1.20
2017-10-07T23:19:57.895Z,1.20
2017-10-07T23:22:33.034Z,1.20
2017-10-07T23:24:59.532Z,1.10
2017-10-07T23:27:26.474Z,0.90
2017-10-07T23:29:53.412Z,0.87
2017-10-07T23:32:20.333Z,0.90
2017-10-07T23:34:46.536Z,0.70
2017-10-07T23:37:13.309Z,1.20
2017-10-07T23:39:39.554Z,1.10
2017-10-07T23:42:21.025Z,0.90
2017-10-07T23:44:47.733Z,1.00
2017-10-07T23:47:13.946Z,0.90
2017-10-07T23:49:40.885Z,1.00
2017-10-07T23:52:07.124Z,1.10
2017-10-07T23:54:33.697Z,1.10
2017-10-07T23:57:00.061Z,0.90
2017-10-07T23:59:27.003Z,2.10
